North Grafton, Massachusetts
Current Conditions -  °F | °C
As of 11:35 AM on Saturday 20 Dec 2014 (Local Time) from KORH Reporting Station
Scattered Clouds Scattered Clouds  
Wind Chill: 23°   Ceiling: Unl
Heat Index: 30°   Visibility: 10mi
Dew Point: 20°   Wind: 7mph
Humidity: 66%   Direction: NA
Pressure: 30.22"   Gusts: NA
Location:  42.23°N, 71.71°W
Report Text: KORH 201635Z VRB06KT 10SM SCT017 SCT023 M01/M07 A3022 RMK AO2 T10111067
Loading
Personal Weather Stations






























Interactive Weather Map New forecast layout! Learn more

10-Day Weather Forecast

Advertisements
Track Severe Weather on mobile